createdAt,value
2022-08-02T00:00:19.115Z,18.87
2022-08-02T00:01:19.152Z,18.82
2022-08-02T00:02:19.103Z,18.84
2022-08-02T00:03:19.073Z,18.74
2022-08-02T00:04:19.072Z,18.80
2022-08-02T00:05:19.048Z,18.64
2022-08-02T00:06:19.034Z,18.79
2022-08-02T00:07:19.037Z,18.73
2022-08-02T00:08:19.019Z,18.70
2022-08-02T00:09:19.013Z,18.64
2022-08-02T00:10:18.990Z,18.59
2022-08-02T00:11:18.975Z,18.70
2022-08-02T00:12:18.968Z,18.58
2022-08-02T00:13:18.956Z,18.65
2022-08-02T00:14:18.961Z,18.55
2022-08-02T00:15:18.940Z,18.61
2022-08-02T00:16:18.928Z,18.65
2022-08-02T00:17:18.910Z,18.58
2022-08-02T00:18:18.907Z,18.58
2022-08-02T00:19:18.912Z,18.64
2022-08-02T00:20:18.877Z,18.62
2022-08-02T00:21:18.874Z,18.64
2022-08-02T00:22:18.855Z,18.67
2022-08-02T00:23:18.841Z,18.70
2022-08-02T00:24:30.155Z,18.62
2022-08-02T00:25:19.835Z,18.65
2022-08-02T00:26:18.818Z,18.65
2022-08-02T00:27:18.803Z,18.61
2022-08-02T00:28:26.938Z,18.65
2022-08-02T00:29:19.773Z,18.58
2022-08-02T00:30:18.779Z,18.57
2022-08-02T00:31:18.765Z,18.59
2022-08-02T00:32:18.742Z,18.67
2022-08-02T00:33:18.737Z,18.55
2022-08-02T00:34:30.254Z,18.43
2022-08-02T00:35:19.755Z,18.52
2022-08-02T00:36:18.713Z,18.50
2022-08-02T00:37:18.692Z,18.42
2022-08-02T00:38:18.697Z,18.44
2022-08-02T00:39:33.666Z,18.34
2022-08-02T00:40:19.679Z,18.39
2022-08-02T00:41:18.663Z,18.28
2022-08-02T00:42:18.632Z,18.15
2022-08-02T00:43:18.627Z,18.19
2022-08-02T00:44:18.608Z,18.22
2022-08-02T00:45:18.614Z,18.19
2022-08-02T00:46:18.584Z,18.15
2022-08-02T00:47:19.509Z,18.18
2022-08-02T00:48:18.570Z,18.15
2022-08-02T00:49:18.591Z,18.07
2022-08-02T00:50:18.540Z,18.19
2022-08-02T00:51:18.554Z,18.15
2022-08-02T00:52:18.524Z,18.04
2022-08-02T00:53:18.512Z,18.00
2022-08-02T00:54:18.496Z,18.12
2022-08-02T00:55:18.756Z,18.03
2022-08-02T00:56:19.486Z,18.02
2022-08-02T00:57:18.468Z,18.04
2022-08-02T00:58:18.457Z,17.92
2022-08-02T00:59:18.527Z,17.89
2022-08-02T01:00:18.428Z,17.99
2022-08-02T01:01:18.467Z,17.92
2022-08-02T01:02:18.542Z,18.02
2022-08-02T01:03:18.393Z,18.00
2022-08-02T01:04:18.382Z,17.88
2022-08-02T01:05:19.379Z,17.92
2022-08-02T01:06:18.377Z,17.88
2022-08-02T01:07:18.348Z,17.85
2022-08-02T01:08:18.339Z,17.84
2022-08-02T01:09:18.332Z,17.79
2022-08-02T01:10:18.327Z,17.91
2022-08-02T01:11:18.317Z,17.91
2022-08-02T01:12:18.300Z,17.82
2022-08-02T01:13:18.286Z,17.91
2022-08-02T01:14:18.269Z,17.91
2022-08-02T01:15:18.265Z,17.85
2022-08-02T01:16:18.266Z,17.85
2022-08-02T01:17:18.233Z,17.89
2022-08-02T01:18:18.231Z,17.81
2022-08-02T01:19:18.211Z,17.84
2022-08-02T01:20:18.211Z,17.78
2022-08-02T01:21:18.218Z,17.81
2022-08-02T01:22:18.186Z,17.85
2022-08-02T01:23:18.812Z,17.91
2022-08-02T01:24:18.163Z,17.73
2022-08-02T01:25:18.150Z,17.76
2022-08-02T01:26:18.156Z,17.74
2022-08-02T01:27:18.123Z,17.69
2022-08-02T01:28:18.115Z,17.74
2022-08-02T01:29:18.096Z,17.71
2022-08-02T01:30:18.094Z,17.70
2022-08-02T01:31:18.095Z,17.70
2022-08-02T01:32:18.077Z,17.67
2022-08-02T01:33:18.066Z,17.70
2022-08-02T01:34:18.066Z,17.70
2022-08-02T01:35:18.026Z,17.78
2022-08-02T01:36:18.041Z,17.73
2022-08-02T01:37:18.011Z,17.70
2022-08-02T01:38:17.994Z,17.67
2022-08-02T01:39:26.969Z,17.71
2022-08-02T01:40:18.977Z,17.66
2022-08-02T01:41:17.982Z,17.70
2022-08-02T01:42:17.954Z,17.70
2022-08-02T01:43:17.962Z,17.69
2022-08-02T01:44:17.944Z,17.66
2022-08-02T01:45:18.912Z,17.64
2022-08-02T01:46:17.923Z,17.57
2022-08-02T01:47:17.893Z,17.50
2022-08-02T01:48:17.880Z,17.46
2022-08-02T01:49:17.954Z,17.43
2022-08-02T01:50:17.877Z,17.51
2022-08-02T01:51:17.866Z,17.40
2022-08-02T01:52:17.842Z,17.51
2022-08-02T01:53:17.825Z,17.38
2022-08-02T01:54:17.819Z,17.43
2022-08-02T01:55:18.668Z,17.48
2022-08-02T01:56:17.810Z,17.40
2022-08-02T01:57:17.777Z,17.50
2022-08-02T01:58:17.775Z,17.48
2022-08-02T01:59:17.756Z,17.43
2022-08-02T02:00:17.747Z,17.38
2022-08-02T02:01:18.659Z,17.44
2022-08-02T02:02:17.737Z,17.46
2022-08-02T02:03:17.718Z,17.48
2022-08-02T02:04:17.706Z,17.40
2022-08-02T02:05:17.690Z,17.29
2022-08-02T02:06:17.707Z,17.40
2022-08-02T02:07:17.675Z,17.40
2022-08-02T02:08:27.317Z,17.44
2022-08-02T02:09:18.642Z,17.40
2022-08-02T02:10:17.636Z,17.35
2022-08-02T02:12:05.799Z,17.38
2022-08-02T02:12:18.924Z,17.40
2022-08-02T02:13:17.612Z,17.43
2022-08-02T02:14:17.597Z,17.33
2022-08-02T02:15:17.588Z,17.36
2022-08-02T02:16:17.590Z,17.22
2022-08-02T02:18:11.982Z,17.32
2022-08-02T02:18:18.549Z,17.35
2022-08-02T02:19:20.888Z,17.47
2022-08-02T02:20:17.526Z,17.28
2022-08-02T02:21:17.523Z,17.36
2022-08-02T02:22:17.506Z,17.28
2022-08-02T02:23:17.493Z,17.22
2022-08-02T02:24:18.521Z,17.14
2022-08-02T02:25:17.495Z,17.18
2022-08-02T02:26:17.538Z,17.17
2022-08-02T02:27:18.442Z,17.17
2022-08-02T02:28:17.439Z,17.22
2022-08-02T02:29:17.428Z,17.14
2022-08-02T02:30:17.435Z,17.22
2022-08-02T02:31:17.397Z,17.17
2022-08-02T02:32:17.394Z,17.14
2022-08-02T02:33:17.376Z,17.25
2022-08-02T02:34:17.367Z,17.20
2022-08-02T02:35:17.356Z,17.15
2022-08-02T02:36:17.362Z,17.17
2022-08-02T02:37:17.339Z,17.17
2022-08-02T02:38:17.320Z,17.10
2022-08-02T02:39:17.318Z,17.18
2022-08-02T02:40:17.309Z,17.08
2022-08-02T02:41:17.307Z,17.10
2022-08-02T02:42:17.282Z,17.08
2022-08-02T02:43:17.269Z,17.10
2022-08-02T02:44:17.264Z,17.00
2022-08-02T02:45:17.241Z,17.06
2022-08-02T02:46:17.249Z,17.07
2022-08-02T02:47:17.222Z,17.00
2022-08-02T02:48:17.205Z,16.96
2022-08-02T02:49:17.219Z,17.04
2022-08-02T02:50:17.181Z,16.95
2022-08-02T02:51:17.183Z,16.98
2022-08-02T02:52:17.157Z,16.90
2022-08-02T02:53:17.146Z,16.90
2022-08-02T02:54:30.975Z,16.90
2022-08-02T02:55:18.129Z,16.89
2022-08-02T02:56:17.132Z,16.95
2022-08-02T02:57:17.102Z,16.89
2022-08-02T02:58:17.092Z,16.85
2022-08-02T02:59:17.079Z,16.93
2022-08-02T03:00:17.079Z,16.88
2022-08-02T03:01:17.127Z,16.90
2022-08-02T03:02:17.061Z,16.95
2022-08-02T03:03:17.035Z,16.92
2022-08-02T03:04:17.025Z,16.78
2022-08-02T03:05:17.022Z,16.86
2022-08-02T03:06:17.020Z,16.85
2022-08-02T03:07:16.990Z,16.78
2022-08-02T03:08:16.992Z,16.80
2022-08-02T03:09:16.976Z,16.83
2022-08-02T03:10:16.966Z,16.75
2022-08-02T03:11:16.971Z,16.62
2022-08-02T03:12:20.103Z,16.71
2022-08-02T03:13:16.925Z,16.85
2022-08-02T03:14:16.915Z,16.59
2022-08-02T03:15:16.904Z,16.67
2022-08-02T03:16:16.908Z,16.71
2022-08-02T03:17:16.888Z,16.67
2022-08-02T03:18:16.872Z,16.62
2022-08-02T03:19:16.876Z,16.73
2022-08-02T03:20:16.884Z,16.62
2022-08-02T03:21:16.853Z,16.73
2022-08-02T03:22:16.835Z,16.67
2022-08-02T03:23:16.817Z,16.55
2022-08-02T03:24:16.811Z,16.58
2022-08-02T03:25:17.792Z,16.52
2022-08-02T03:26:16.795Z,16.55
2022-08-02T03:27:16.776Z,16.52
2022-08-02T03:28:16.765Z,16.50
2022-08-02T03:29:16.754Z,16.44
2022-08-02T03:30:16.745Z,16.45
2022-08-02T03:31:16.739Z,16.45
2022-08-02T03:32:16.721Z,16.48
2022-08-02T03:33:16.702Z,16.44
2022-08-02T03:34:16.699Z,16.44
2022-08-02T03:35:22.848Z,16.38
2022-08-02T03:36:17.686Z,16.41
2022-08-02T03:37:16.666Z,16.48
2022-08-02T03:38:16.659Z,16.37
2022-08-02T03:39:16.643Z,16.41
2022-08-02T03:40:16.628Z,16.42
2022-08-02T03:41:16.635Z,16.34
2022-08-02T03:42:16.606Z,16.42
2022-08-02T03:43:16.593Z,16.33
2022-08-02T03:44:16.590Z,16.34
2022-08-02T03:45:16.580Z,16.35
2022-08-02T03:46:16.581Z,16.25
2022-08-02T03:47:16.550Z,16.40
2022-08-02T03:48:30.541Z,16.27
2022-08-02T03:49:17.562Z,16.22
2022-08-02T03:50:16.541Z,16.23
2022-08-02T03:51:16.526Z,16.31
2022-08-02T03:52:16.501Z,16.25
2022-08-02T03:53:19.914Z,16.25
2022-08-02T03:54:16.482Z,16.30
2022-08-02T03:55:16.462Z,16.25
2022-08-02T03:56:16.463Z,16.25
2022-08-02T03:57:16.447Z,16.25
2022-08-02T03:58:16.427Z,16.22
2022-08-02T03:59:16.426Z,16.25
2022-08-02T04:00:16.404Z,16.27
2022-08-02T04:01:16.640Z,16.23
2022-08-02T04:02:16.390Z,16.31
2022-08-02T04:03:19.837Z,16.23
2022-08-02T04:04:16.364Z,16.22
2022-08-02T04:05:16.345Z,16.22
2022-08-02T04:06:16.352Z,16.26
2022-08-02T04:08:02.435Z,16.26
2022-08-02T04:08:37.100Z,16.16
2022-08-02T04:09:17.299Z,16.22
2022-08-02T04:10:16.296Z,16.25
2022-08-02T04:11:16.301Z,16.25
2022-08-02T04:12:16.275Z,16.25
2022-08-02T04:13:16.256Z,16.23
2022-08-02T04:14:16.243Z,16.20
2022-08-02T04:15:16.237Z,16.14
2022-08-02T04:16:16.242Z,16.20
2022-08-02T04:17:16.209Z,16.22
2022-08-02T04:18:16.196Z,16.22
2022-08-02T04:19:16.194Z,16.16
2022-08-02T04:20:16.176Z,16.16
2022-08-02T04:21:16.188Z,16.20
2022-08-02T04:22:16.153Z,16.22
2022-08-02T04:23:16.142Z,16.26
2022-08-02T04:24:18.628Z,16.23
2022-08-02T04:25:17.537Z,16.20
2022-08-02T04:26:16.136Z,16.20
2022-08-02T04:27:49.278Z,16.25
2022-08-02T04:28:18.578Z,16.16
2022-08-02T04:29:16.082Z,16.22
2022-08-02T04:30:16.061Z,16.25
2022-08-02T04:31:16.077Z,16.18
2022-08-02T04:32:16.048Z,16.25
2022-08-02T04:33:16.034Z,16.18
2022-08-02T04:34:16.015Z,16.22
2022-08-02T04:35:20.211Z,16.25
2022-08-02T04:36:16.000Z,16.22
2022-08-02T04:37:17.005Z,16.30
2022-08-02T04:38:16.073Z,16.33
2022-08-02T04:39:15.967Z,16.33
2022-08-02T04:40:15.948Z,16.33
2022-08-02T04:41:15.937Z,16.25
2022-08-02T04:42:15.942Z,16.35
2022-08-02T04:43:15.926Z,16.23
2022-08-02T04:44:15.901Z,16.34
2022-08-02T04:45:16.567Z,16.30
2022-08-02T04:46:15.885Z,16.35
2022-08-02T04:47:15.891Z,16.34
2022-08-02T04:48:15.856Z,16.37
2022-08-02T04:49:15.882Z,16.33
2022-08-02T04:50:15.838Z,16.35
2022-08-02T04:51:15.831Z,16.38
2022-08-02T04:52:15.830Z,16.34
2022-08-02T04:53:15.817Z,16.34
2022-08-02T04:54:15.789Z,16.41
2022-08-02T04:55:15.778Z,16.38
2022-08-02T04:56:15.771Z,16.33
2022-08-02T04:57:15.774Z,16.44
2022-08-02T04:58:39.381Z,16.44
2022-08-02T04:59:16.747Z,16.42
2022-08-02T05:00:15.834Z,16.38
2022-08-02T05:01:15.783Z,16.45
2022-08-02T05:02:15.716Z,16.52
2022-08-02T05:03:15.692Z,16.48
2022-08-02T05:04:15.672Z,16.55
2022-08-02T05:05:15.671Z,16.52
2022-08-02T05:06:18.763Z,16.49
2022-08-02T05:07:15.656Z,16.63
2022-08-02T05:08:15.633Z,16.65
2022-08-02T05:09:15.622Z,16.71
2022-08-02T05:10:15.610Z,16.67
2022-08-02T05:11:15.595Z,16.70
2022-08-02T05:12:15.599Z,16.70
2022-08-02T05:13:15.579Z,16.77
2022-08-02T05:14:15.559Z,16.74
2022-08-02T05:15:15.548Z,16.78
2022-08-02T05:16:15.537Z,16.85
2022-08-02T05:17:15.547Z,16.81
2022-08-02T05:18:15.520Z,16.85
2022-08-02T05:19:15.511Z,17.00
2022-08-02T05:20:15.492Z,16.81
2022-08-02T05:21:15.521Z,16.93
2022-08-02T05:22:15.481Z,17.06
2022-08-02T05:23:15.466Z,16.96
2022-08-02T05:24:15.452Z,17.00
2022-08-02T05:25:15.442Z,17.20
2022-08-02T05:26:15.430Z,17.18
2022-08-02T05:27:17.154Z,17.15
2022-08-02T05:28:16.398Z,17.29
2022-08-02T05:29:15.391Z,17.35
2022-08-02T05:30:15.384Z,17.32
2022-08-02T05:31:15.374Z,17.48
2022-08-02T05:32:15.370Z,17.62
2022-08-02T05:33:15.345Z,17.59
2022-08-02T05:34:15.331Z,17.71
2022-08-02T05:35:15.330Z,17.74
2022-08-02T05:36:15.836Z,17.85
2022-08-02T05:37:15.313Z,17.89
2022-08-02T05:38:15.297Z,17.85
2022-08-02T05:39:19.091Z,18.06
2022-08-02T05:40:15.264Z,18.07
2022-08-02T05:41:15.265Z,18.13
2022-08-02T05:42:15.284Z,18.19
2022-08-02T05:43:15.240Z,18.24
2022-08-02T05:44:15.226Z,18.37
2022-08-02T05:45:15.210Z,18.33
2022-08-02T05:46:15.208Z,18.46
2022-08-02T05:47:15.200Z,18.55
2022-08-02T05:48:15.177Z,18.58
2022-08-02T05:49:15.284Z,18.62
2022-08-02T05:50:15.152Z,18.83
2022-08-02T05:51:15.141Z,18.79
2022-08-02T05:52:15.158Z,18.79
2022-08-02T05:53:15.119Z,18.80
2022-08-02T05:54:15.114Z,18.76
2022-08-02T05:55:15.103Z,18.83
2022-08-02T05:56:15.090Z,18.83
2022-08-02T05:57:15.086Z,18.86
2022-08-02T05:58:15.068Z,19.05
2022-08-02T05:59:15.052Z,19.15
2022-08-02T06:00:15.044Z,19.15
2022-08-02T06:01:15.116Z,19.20
2022-08-02T06:02:15.638Z,19.40
2022-08-02T06:03:16.012Z,19.46
2022-08-02T06:04:14.997Z,19.61
2022-08-02T06:05:14.987Z,19.66
2022-08-02T06:06:14.976Z,19.65
2022-08-02T06:07:14.973Z,19.60
2022-08-02T06:08:14.944Z,19.66
2022-08-02T06:09:14.934Z,19.66
2022-08-02T06:10:14.928Z,19.66
2022-08-02T06:11:14.911Z,19.65
2022-08-02T06:12:15.207Z,19.80
2022-08-02T06:13:14.918Z,19.78
2022-08-02T06:14:14.881Z,19.95
2022-08-02T06:15:14.869Z,19.87
2022-08-02T06:16:15.070Z,19.80
2022-08-02T06:17:14.859Z,19.72
2022-08-02T06:18:14.834Z,19.83
2022-08-02T06:19:14.829Z,19.86
2022-08-02T06:20:14.810Z,19.86
2022-08-02T06:22:31.402Z,19.91
2022-08-02T06:22:33.730Z,19.94
2022-08-02T06:23:15.778Z,19.93
2022-08-02T06:24:14.772Z,19.97
2022-08-02T06:25:51.081Z,20.13
2022-08-02T06:26:15.743Z,20.28
2022-08-02T06:27:14.747Z,20.31
2022-08-02T06:28:14.728Z,20.43
2022-08-02T06:29:14.709Z,20.49
2022-08-02T06:30:14.706Z,20.39
2022-08-02T06:31:14.687Z,20.27
2022-08-02T06:32:15.269Z,20.23
2022-08-02T06:33:14.692Z,20.28
2022-08-02T06:34:14.653Z,20.25
2022-08-02T06:35:14.645Z,20.24
2022-08-02T06:36:14.639Z,20.24
2022-08-02T06:37:14.640Z,20.24
2022-08-02T06:38:14.610Z,20.00
2022-08-02T06:39:14.598Z,19.94
2022-08-02T06:40:14.589Z,20.06
2022-08-02T06:41:14.583Z,20.08
2022-08-02T06:42:14.860Z,20.06
2022-08-02T06:43:14.552Z,20.05
2022-08-02T06:44:44.843Z,20.05
2022-08-02T06:45:15.530Z,20.06
2022-08-02T06:47:09.841Z,20.16
2022-08-02T06:47:15.524Z,20.28
2022-08-02T06:48:14.512Z,20.23
2022-08-02T06:49:14.611Z,20.30
2022-08-02T06:50:14.481Z,20.31
2022-08-02T06:51:14.471Z,20.49
2022-08-02T06:52:18.714Z,20.58
2022-08-02T06:53:14.448Z,20.74
2022-08-02T06:54:14.437Z,20.84
2022-08-02T06:55:14.423Z,21.19
2022-08-02T06:56:14.406Z,21.46
2022-08-02T06:57:14.419Z,21.90
2022-08-02T06:58:14.402Z,21.88
2022-08-02T06:59:14.479Z,22.04
2022-08-02T07:00:14.361Z,21.98
2022-08-02T07:01:14.426Z,22.07
2022-08-02T07:02:14.604Z,21.99
2022-08-02T07:03:14.327Z,21.64
2022-08-02T07:04:16.452Z,21.54
2022-08-02T07:05:14.305Z,21.56
2022-08-02T07:06:14.307Z,21.48
2022-08-02T07:07:14.293Z,21.54
2022-08-02T07:08:14.269Z,21.57
2022-08-02T07:09:22.199Z,21.50
2022-08-02T07:10:15.253Z,21.39
2022-08-02T07:11:14.239Z,21.39
2022-08-02T07:12:14.607Z,21.32
2022-08-02T07:13:14.214Z,21.48
2022-08-02T07:14:14.354Z,21.46
2022-08-02T07:15:14.205Z,21.46
2022-08-02T07:16:14.180Z,21.44
2022-08-02T07:17:14.184Z,21.35
2022-08-02T07:18:14.165Z,21.19
2022-08-02T07:19:14.148Z,21.20
2022-08-02T07:20:14.141Z,21.11
2022-08-02T07:21:14.135Z,21.13
2022-08-02T07:22:14.312Z,21.16
2022-08-02T07:23:14.110Z,21.16
2022-08-02T07:24:14.091Z,21.23
2022-08-02T07:25:14.094Z,21.44
2022-08-02T07:26:14.068Z,21.67
2022-08-02T07:27:14.100Z,21.88
2022-08-02T07:28:22.128Z,22.13
2022-08-02T07:29:15.035Z,22.35
2022-08-02T07:30:14.030Z,22.62
2022-08-02T07:31:14.025Z,23.02
2022-08-02T07:32:14.468Z,23.11
2022-08-02T07:33:37.724Z,23.09
2022-08-02T07:34:14.977Z,22.82
2022-08-02T07:35:14.558Z,22.69
2022-08-02T07:36:17.024Z,22.56
2022-08-02T07:37:35.992Z,22.44
2022-08-02T07:38:14.938Z,22.31
2022-08-02T07:39:13.921Z,22.35
2022-08-02T07:40:15.051Z,22.22
2022-08-02T07:41:14.910Z,22.17
2022-08-02T07:42:14.286Z,22.17
2022-08-02T07:43:13.887Z,22.38
2022-08-02T07:44:13.873Z,22.43
2022-08-02T07:45:13.880Z,22.69
2022-08-02T07:46:13.848Z,22.87
2022-08-02T07:47:14.404Z,23.08
2022-08-02T07:48:13.848Z,23.17
2022-08-02T07:49:13.924Z,23.24
2022-08-02T07:50:13.812Z,23.23
2022-08-02T07:51:17.216Z,23.31
2022-08-02T07:52:14.289Z,23.27
2022-08-02T07:53:13.768Z,23.22
2022-08-02T07:54:16.832Z,23.34
2022-08-02T07:55:13.751Z,23.35
2022-08-02T07:56:13.732Z,23.32
2022-08-02T07:57:13.738Z,23.27
2022-08-02T07:58:13.916Z,23.31
2022-08-02T07:59:13.889Z,23.29
2022-08-02T08:00:13.689Z,23.46
2022-08-02T08:01:13.705Z,23.49
2022-08-02T08:02:14.081Z,23.62
2022-08-02T08:03:13.656Z,23.64
2022-08-02T08:04:13.644Z,23.80
2022-08-02T08:05:13.641Z,23.85
2022-08-02T08:06:13.621Z,23.97
2022-08-02T08:07:13.637Z,24.08
2022-08-02T08:08:17.399Z,24.16
2022-08-02T08:09:13.596Z,24.17
2022-08-02T08:10:13.583Z,24.14
2022-08-02T08:11:13.582Z,24.26
2022-08-02T08:12:14.129Z,24.13
2022-08-02T08:13:13.544Z,24.08
2022-08-02T08:14:16.864Z,24.17
2022-08-02T08:15:13.530Z,24.29
2022-08-02T08:16:13.520Z,24.35
2022-08-02T08:17:13.512Z,24.39
2022-08-02T08:18:13.492Z,24.41
2022-08-02T08:19:13.621Z,24.45
2022-08-02T08:20:15.890Z,24.53
2022-08-02T08:21:13.458Z,24.59
2022-08-02T08:22:14.063Z,24.71
2022-08-02T08:23:13.434Z,24.64
2022-08-02T08:24:13.421Z,24.87
2022-08-02T08:25:13.413Z,24.88
2022-08-02T08:26:15.793Z,25.05
2022-08-02T08:27:13.432Z,25.10
2022-08-02T08:28:13.387Z,25.20
2022-08-02T08:29:13.364Z,25.12
2022-08-02T08:30:13.361Z,24.97
2022-08-02T08:31:13.351Z,24.71
2022-08-02T08:32:17.467Z,24.60
2022-08-02T08:33:14.321Z,24.61
2022-08-02T08:34:13.309Z,24.69
2022-08-02T08:35:13.305Z,24.57
2022-08-02T08:36:13.294Z,24.68
2022-08-02T08:37:18.116Z,24.59
2022-08-02T08:38:14.276Z,24.60
2022-08-02T08:39:13.249Z,24.49
2022-08-02T08:40:13.247Z,24.56
2022-08-02T08:41:14.228Z,24.69
2022-08-02T08:42:13.541Z,24.97
2022-08-02T08:43:13.228Z,25.00
2022-08-02T08:44:13.203Z,25.27
2022-08-02T08:45:13.182Z,25.27
2022-08-02T08:46:13.181Z,25.44
2022-08-02T08:47:13.161Z,25.52
2022-08-02T08:48:13.164Z,25.72
2022-08-02T08:49:13.203Z,25.80
2022-08-02T08:50:20.068Z,25.97
2022-08-02T08:51:14.122Z,25.93
2022-08-02T08:52:13.572Z,26.05
2022-08-02T08:53:13.825Z,26.15
2022-08-02T08:54:13.091Z,26.29
2022-08-02T08:55:13.071Z,26.21
2022-08-02T08:56:16.354Z,26.25
2022-08-02T08:57:13.720Z,26.37
2022-08-02T08:58:13.524Z,26.43
2022-08-02T08:59:13.027Z,26.59
2022-08-02T09:00:13.034Z,26.99
2022-08-02T09:01:13.139Z,27.38
2022-08-02T09:02:17.860Z,27.73
2022-08-02T09:03:13.997Z,28.16
2022-08-02T09:04:12.981Z,28.44
2022-08-02T09:05:12.969Z,28.70
2022-08-02T09:06:12.953Z,28.93
2022-08-02T09:07:12.949Z,29.34
2022-08-02T09:08:16.794Z,29.25
2022-08-02T09:09:12.926Z,29.19
2022-08-02T09:10:12.917Z,29.37
2022-08-02T09:11:12.903Z,29.47
2022-08-02T09:12:13.246Z,29.72
2022-08-02T09:13:37.591Z,29.97
2022-08-02T09:14:13.863Z,30.33
2022-08-02T09:15:15.947Z,31.06
2022-08-02T09:16:14.546Z,31.31
2022-08-02T09:17:12.831Z,31.02
2022-08-02T09:18:12.838Z,30.50
2022-08-02T09:19:12.817Z,30.29
2022-08-02T09:20:12.812Z,30.24
2022-08-02T09:21:12.787Z,30.15
2022-08-02T09:22:13.261Z,30.43
2022-08-02T09:23:12.782Z,30.62
2022-08-02T09:24:12.760Z,30.78
2022-08-02T09:25:12.746Z,31.20
2022-08-02T09:26:12.737Z,31.65
2022-08-02T09:27:12.733Z,32.14
2022-08-02T09:28:12.738Z,32.37
2022-08-02T09:29:12.712Z,32.39
2022-08-02T09:30:13.981Z,32.47
2022-08-02T09:31:12.691Z,32.54
2022-08-02T09:32:13.010Z,32.42
2022-08-02T09:33:12.687Z,32.22
2022-08-02T09:34:12.660Z,31.82
2022-08-02T09:35:12.648Z,31.70
2022-08-02T09:36:12.652Z,31.73
2022-08-02T09:37:12.627Z,31.77
2022-08-02T09:38:12.632Z,31.88
2022-08-02T09:39:12.605Z,32.22
2022-08-02T09:40:12.607Z,32.51
2022-08-02T09:41:12.590Z,32.44
2022-08-02T09:42:12.868Z,31.99
2022-08-02T09:43:12.571Z,31.73
2022-08-02T09:44:15.941Z,31.57
2022-08-02T09:45:12.547Z,31.58
2022-08-02T09:46:12.524Z,31.96
2022-08-02T09:47:12.520Z,31.82
2022-08-02T09:48:12.526Z,31.77
2022-08-02T09:49:12.579Z,31.54
2022-08-02T09:50:15.061Z,31.46
2022-08-02T09:51:12.474Z,31.54
2022-08-02T09:52:13.012Z,31.67
2022-08-02T09:53:12.472Z,32.07
2022-08-02T09:54:12.449Z,32.59
2022-08-02T09:55:12.439Z,32.98
2022-08-02T09:56:30.251Z,33.01
2022-08-02T09:57:13.408Z,32.67
2022-08-02T09:58:12.414Z,32.32
2022-08-02T09:59:12.394Z,32.17
2022-08-02T10:00:16.262Z,32.02
2022-08-02T10:01:13.438Z,31.75
2022-08-02T10:02:17.050Z,31.17
2022-08-02T10:03:22.415Z,30.72
2022-08-02T10:04:20.559Z,30.93
2022-08-02T10:05:13.323Z,31.33
2022-08-02T10:06:12.314Z,31.91
2022-08-02T10:07:12.312Z,32.66
2022-08-02T10:08:12.311Z,33.45
2022-08-02T10:09:12.290Z,34.19
2022-08-02T10:10:12.282Z,34.83
2022-08-02T10:11:12.268Z,35.32
2022-08-02T10:12:12.613Z,35.69
2022-08-02T10:13:12.259Z,36.03
2022-08-02T10:14:13.230Z,36.35
2022-08-02T10:15:12.219Z,36.70
2022-08-02T10:16:12.210Z,36.35
2022-08-02T10:17:12.206Z,35.29
2022-08-02T10:18:29.048Z,34.23
2022-08-02T10:19:13.176Z,33.22
2022-08-02T10:20:12.176Z,32.30
2022-08-02T10:21:12.165Z,31.61
2022-08-02T10:22:12.439Z,31.12
2022-08-02T10:23:12.167Z,30.54
2022-08-02T10:24:12.135Z,30.11
2022-08-02T10:25:12.123Z,29.75
2022-08-02T10:26:12.106Z,29.44
2022-08-02T10:27:12.157Z,29.31
2022-08-02T10:28:16.485Z,29.25
2022-08-02T10:29:12.085Z,29.52
2022-08-02T10:30:12.070Z,29.89
2022-08-02T10:31:12.056Z,30.11
2022-08-02T10:32:12.340Z,30.36
2022-08-02T10:33:12.047Z,30.37
2022-08-02T10:34:12.022Z,30.24
2022-08-02T10:35:19.564Z,30.38
2022-08-02T10:36:13.007Z,30.54
2022-08-02T10:37:11.997Z,30.83
2022-08-02T10:38:12.002Z,31.08
2022-08-02T10:39:11.968Z,31.21
2022-08-02T10:40:12.021Z,31.36
2022-08-02T10:41:11.954Z,31.33
2022-08-02T10:42:12.479Z,31.09
2022-08-02T10:43:11.952Z,31.15
2022-08-02T10:44:24.838Z,31.26
2022-08-02T10:45:12.912Z,31.30
2022-08-02T10:46:11.901Z,31.26
2022-08-02T10:47:11.885Z,31.35
2022-08-02T10:48:11.901Z,31.28
2022-08-02T10:49:38.750Z,31.68
2022-08-02T10:50:12.962Z,31.75
2022-08-02T10:51:11.851Z,31.42
2022-08-02T10:52:12.209Z,31.20
2022-08-02T10:53:11.845Z,30.83
2022-08-02T10:54:11.825Z,30.69
2022-08-02T10:55:14.737Z,30.86
2022-08-02T10:56:11.794Z,31.02
2022-08-02T10:57:15.087Z,31.36
2022-08-02T10:58:11.784Z,31.58
2022-08-02T10:59:11.778Z,31.85
2022-08-02T11:00:11.755Z,32.06
2022-08-02T11:01:12.772Z,32.40
2022-08-02T11:02:12.020Z,32.54
2022-08-02T11:03:11.720Z,32.61
2022-08-02T11:04:11.727Z,32.80
2022-08-02T11:05:11.712Z,32.91
2022-08-02T11:06:25.250Z,32.92
2022-08-02T11:07:12.694Z,33.10
2022-08-02T11:08:11.672Z,32.98
2022-08-02T11:09:11.686Z,33.01
2022-08-02T11:10:11.662Z,32.99
2022-08-02T11:11:11.641Z,32.96
2022-08-02T11:12:11.880Z,32.85
2022-08-02T11:13:11.622Z,32.79
2022-08-02T11:14:11.632Z,32.85
2022-08-02T11:15:11.600Z,32.91
2022-08-02T11:16:12.199Z,33.11
2022-08-02T11:17:11.587Z,33.15
2022-08-02T11:18:11.578Z,33.23
2022-08-02T11:19:11.575Z,33.13
2022-08-02T11:20:11.562Z,33.13
2022-08-02T11:21:11.546Z,33.06
2022-08-02T11:22:11.762Z,33.01
2022-08-02T11:23:11.524Z,32.99
2022-08-02T11:24:11.530Z,32.86
2022-08-02T11:25:11.495Z,32.92
2022-08-02T11:26:11.617Z,32.95
2022-08-02T11:27:11.636Z,33.13
2022-08-02T11:28:11.466Z,33.11
2022-08-02T11:29:15.982Z,33.17
2022-08-02T11:30:11.449Z,33.19
2022-08-02T11:31:11.441Z,33.33
2022-08-02T11:32:11.732Z,33.39
2022-08-02T11:33:11.414Z,33.31
2022-08-02T11:34:11.425Z,33.42
2022-08-02T11:35:12.401Z,33.33
2022-08-02T11:36:11.398Z,33.30
2022-08-02T11:37:11.373Z,32.99
2022-08-02T11:38:11.375Z,32.84
2022-08-02T11:39:11.379Z,32.64
2022-08-02T11:40:18.969Z,32.32
2022-08-02T11:41:12.329Z,32.17
2022-08-02T11:42:11.819Z,32.10
2022-08-02T11:43:11.317Z,32.10
2022-08-02T11:44:11.312Z,32.21
2022-08-02T11:45:11.297Z,32.27
2022-08-02T11:46:12.285Z,32.30
2022-08-02T11:47:11.267Z,32.42
2022-08-02T11:48:11.258Z,32.36
2022-08-02T11:49:11.318Z,32.57
2022-08-02T11:50:11.247Z,32.71
2022-08-02T11:51:11.242Z,32.93
2022-08-02T11:52:11.758Z,33.04
2022-08-02T11:53:11.212Z,33.08
2022-08-02T11:54:11.208Z,33.19
2022-08-02T11:55:11.183Z,33.17
2022-08-02T11:56:11.183Z,33.30
2022-08-02T11:57:14.321Z,33.29
2022-08-02T11:58:12.169Z,33.15
2022-08-02T11:59:14.392Z,32.95
2022-08-02T12:00:11.131Z,33.08
2022-08-02T12:01:11.121Z,33.10
2022-08-02T12:02:11.466Z,32.99
2022-08-02T12:03:11.340Z,32.96
2022-08-02T12:04:11.118Z,32.84
2022-08-02T12:05:11.086Z,32.44
2022-08-02T12:06:16.382Z,32.10
2022-08-02T12:07:12.057Z,31.88
2022-08-02T12:08:11.050Z,31.62
2022-08-02T12:09:18.276Z,31.75
2022-08-02T12:10:12.026Z,31.76
2022-08-02T12:11:12.027Z,31.85
2022-08-02T12:12:11.268Z,32.05
2022-08-02T12:13:10.993Z,32.14
2022-08-02T12:14:11.002Z,32.13
2022-08-02T12:15:10.973Z,32.18
2022-08-02T12:16:10.970Z,32.22
2022-08-02T12:17:10.953Z,32.37
2022-08-02T12:18:10.948Z,32.39
2022-08-02T12:19:10.950Z,32.52
2022-08-02T12:20:10.920Z,32.71
2022-08-02T12:21:10.918Z,32.84
2022-08-02T12:22:11.231Z,32.86
2022-08-02T12:23:10.894Z,32.96
2022-08-02T12:24:10.893Z,32.76
2022-08-02T12:25:10.866Z,32.74
2022-08-02T12:26:16.333Z,32.79
2022-08-02T12:27:11.851Z,32.74
2022-08-02T12:28:14.374Z,32.66
2022-08-02T12:29:11.841Z,32.59
2022-08-02T12:30:10.824Z,32.54
2022-08-02T12:31:10.812Z,32.51
2022-08-02T12:32:11.097Z,32.44
2022-08-02T12:33:13.223Z,32.40
2022-08-02T12:34:10.804Z,32.27
2022-08-02T12:35:10.766Z,32.02
2022-08-02T12:36:10.762Z,31.57
2022-08-02T12:37:10.757Z,31.40
2022-08-02T12:38:10.736Z,31.38
2022-08-02T12:39:10.743Z,31.26
2022-08-02T12:40:10.716Z,31.18
2022-08-02T12:41:30.292Z,31.09
2022-08-02T12:42:12.040Z,31.11
2022-08-02T12:43:10.676Z,31.15
2022-08-02T12:44:10.678Z,31.06
2022-08-02T12:45:10.653Z,31.11
2022-08-02T12:46:10.648Z,30.93
2022-08-02T12:47:10.639Z,30.86
2022-08-02T12:48:10.639Z,30.83
2022-08-02T12:49:18.025Z,30.57
2022-08-02T12:50:11.605Z,30.56
2022-08-02T12:51:10.824Z,30.59
2022-08-02T12:52:10.577Z,30.61